sensor_id;sensor_type;location;lat;lon;timestamp;P1;durP1;ratioP1;P2;durP2;ratioP2
46491;SDS011;32206;51.446;6.792;2023-05-07T00:01:31;4.47;;;4.07;;
46491;SDS011;32206;51.446;6.792;2023-05-07T00:03:56;4.00;;;3.63;;
46491;SDS011;32206;51.446;6.792;2023-05-07T00:06:22;4.47;;;4.10;;
46491;SDS011;32206;51.446;6.792;2023-05-07T00:08:48;5.50;;;4.40;;
46491;SDS011;32206;51.446;6.792;2023-05-07T00:11:13;6.28;;;4.65;;
46491;SDS011;32206;51.446;6.792;2023-05-07T00:13:39;7.20;;;4.53;;
46491;SDS011;32206;51.446;6.792;2023-05-07T00:16:05;5.03;;;3.72;;
46491;SDS011;32206;51.446;6.792;2023-05-07T00:18:31;5.60;;;3.75;;
46491;SDS011;32206;51.446;6.792;2023-05-07T00:20:56;6.38;;;4.97;;
46491;SDS011;32206;51.446;6.792;2023-05-07T00:23:22;5.97;;;4.43;;
46491;SDS011;32206;51.446;6.792;2023-05-07T00:25:48;5.78;;;5.10;;
46491;SDS011;32206;51.446;6.792;2023-05-07T00:28:13;7.65;;;4.25;;
46491;SDS011;32206;51.446;6.792;2023-05-07T00:30:39;4.53;;;3.83;;
46491;SDS011;32206;51.446;6.792;2023-05-07T00:33:05;7.95;;;4.88;;
46491;SDS011;32206;51.446;6.792;2023-05-07T00:35:30;6.72;;;5.20;;
46491;SDS011;32206;51.446;6.792;2023-05-07T00:37:56;5.20;;;4.70;;
46491;SDS011;32206;51.446;6.792;2023-05-07T00:40:22;6.20;;;4.70;;
46491;SDS011;32206;51.446;6.792;2023-05-07T00:42:48;4.82;;;4.32;;
46491;SDS011;32206;51.446;6.792;2023-05-07T00:45:13;6.63;;;4.38;;
46491;SDS011;32206;51.446;6.792;2023-05-07T00:47:40;6.45;;;4.65;;
46491;SDS011;32206;51.446;6.792;2023-05-07T00:50:06;5.63;;;4.55;;
46491;SDS011;32206;51.446;6.792;2023-05-07T00:52:32;6.50;;;4.35;;
46491;SDS011;32206;51.446;6.792;2023-05-07T01:01:23;5.85;;;5.13;;
46491;SDS011;32206;51.446;6.792;2023-05-07T01:03:49;5.65;;;4.60;;
46491;SDS011;32206;51.446;6.792;2023-05-07T01:06:14;6.65;;;4.32;;
46491;SDS011;32206;51.446;6.792;2023-05-07T01:08:42;5.88;;;4.88;;
46491;SDS011;32206;51.446;6.792;2023-05-07T01:11:08;5.88;;;5.28;;
46491;SDS011;32206;51.446;6.792;2023-05-07T01:13:35;6.57;;;5.45;;
46491;SDS011;32206;51.446;6.792;2023-05-07T01:16:01;8.40;;;6.15;;
46491;SDS011;32206;51.446;6.792;2023-05-07T01:18:28;8.68;;;5.70;;
46491;SDS011;32206;51.446;6.792;2023-05-07T01:20:55;9.52;;;6.03;;
46491;SDS011;32206;51.446;6.792;2023-05-07T01:23:23;6.63;;;5.43;;
46491;SDS011;32206;51.446;6.792;2023-05-07T01:25:52;7.93;;;5.35;;
46491;SDS011;32206;51.446;6.792;2023-05-07T01:28:18;8.70;;;6.68;;
46491;SDS011;32206;51.446;6.792;2023-05-07T01:30:46;7.55;;;6.85;;
46491;SDS011;32206;51.446;6.792;2023-05-07T01:33:15;8.85;;;7.47;;
46491;SDS011;32206;51.446;6.792;2023-05-07T01:35:47;8.18;;;6.70;;
46491;SDS011;32206;51.446;6.792;2023-05-07T01:38:15;8.40;;;7.53;;
46491;SDS011;32206;51.446;6.792;2023-05-07T01:40:43;8.25;;;7.55;;
46491;SDS011;32206;51.446;6.792;2023-05-07T01:43:09;9.30;;;7.60;;
46491;SDS011;32206;51.446;6.792;2023-05-07T01:45:35;9.43;;;8.40;;
46491;SDS011;32206;51.446;6.792;2023-05-07T01:48:02;8.35;;;7.68;;
46491;SDS011;32206;51.446;6.792;2023-05-07T01:50:28;10.20;;;7.78;;
46491;SDS011;32206;51.446;6.792;2023-05-07T01:52:55;8.38;;;7.53;;
46491;SDS011;32206;51.446;6.792;2023-05-07T01:55:21;9.07;;;7.43;;
46491;SDS011;32206;51.446;6.792;2023-05-07T01:57:47;8.73;;;7.57;;
46491;SDS011;32206;51.446;6.792;2023-05-07T02:00:13;10.57;;;7.95;;
46491;SDS011;32206;51.446;6.792;2023-05-07T02:02:38;7.68;;;6.97;;
46491;SDS011;32206;51.446;6.792;2023-05-07T02:05:04;8.23;;;7.43;;
46491;SDS011;32206;51.446;6.792;2023-05-07T02:10:52;9.98;;;7.25;;
46491;SDS011;32206;51.446;6.792;2023-05-07T02:13:18;10.88;;;8.10;;
46491;SDS011;32206;51.446;6.792;2023-05-07T02:15:45;8.27;;;7.38;;
46491;SDS011;32206;51.446;6.792;2023-05-07T02:18:14;8.32;;;7.50;;
46491;SDS011;32206;51.446;6.792;2023-05-07T02:20:40;8.35;;;7.28;;
46491;SDS011;32206;51.446;6.792;2023-05-07T02:23:06;9.30;;;8.15;;
46491;SDS011;32206;51.446;6.792;2023-05-07T02:25:32;7.97;;;7.18;;
46491;SDS011;32206;51.446;6.792;2023-05-07T02:27:57;8.45;;;7.60;;
46491;SDS011;32206;51.446;6.792;2023-05-07T02:30:24;13.77;;;7.40;;
46491;SDS011;32206;51.446;6.792;2023-05-07T02:32:50;8.70;;;7.80;;
46491;SDS011;32206;51.446;6.792;2023-05-07T02:35:15;8.63;;;7.68;;
46491;SDS011;32206;51.446;6.792;2023-05-07T02:37:41;11.98;;;8.10;;
46491;SDS011;32206;51.446;6.792;2023-05-07T02:40:07;8.68;;;7.70;;
46491;SDS011;32206;51.446;6.792;2023-05-07T02:42:33;10.43;;;8.95;;
46491;SDS011;32206;51.446;6.792;2023-05-07T02:44:59;10.43;;;7.50;;
46491;SDS011;32206;51.446;6.792;2023-05-07T02:47:24;9.15;;;7.50;;
46491;SDS011;32206;51.446;6.792;2023-05-07T02:49:53;8.15;;;7.43;;
46491;SDS011;32206;51.446;6.792;2023-05-07T02:52:20;8.55;;;7.70;;
46491;SDS011;32206;51.446;6.792;2023-05-07T02:54:46;9.55;;;8.57;;
46491;SDS011;32206;51.446;6.792;2023-05-07T02:57:11;12.73;;;8.48;;
46491;SDS011;32206;51.446;6.792;2023-05-07T02:59:37;9.75;;;8.40;;
46491;SDS011;32206;51.446;6.792;2023-05-07T03:02:03;10.77;;;8.65;;
46491;SDS011;32206;51.446;6.792;2023-05-07T03:04:28;9.70;;;8.27;;
46491;SDS011;32206;51.446;6.792;2023-05-07T03:06:54;9.80;;;8.55;;
46491;SDS011;32206;51.446;6.792;2023-05-07T03:09:20;10.80;;;8.75;;
46491;SDS011;32206;51.446;6.792;2023-05-07T03:11:46;10.00;;;8.95;;
46491;SDS011;32206;51.446;6.792;2023-05-07T03:14:11;11.65;;;8.85;;
46491;SDS011;32206;51.446;6.792;2023-05-07T03:16:37;11.40;;;8.75;;
46491;SDS011;32206;51.446;6.792;2023-05-07T03:22:25;14.25;;;9.65;;
46491;SDS011;32206;51.446;6.792;2023-05-07T03:24:51;10.50;;;9.40;;
46491;SDS011;32206;51.446;6.792;2023-05-07T03:27:16;11.93;;;9.02;;
46491;SDS011;32206;51.446;6.792;2023-05-07T03:29:42;16.95;;;11.07;;
46491;SDS011;32206;51.446;6.792;2023-05-07T03:32:07;11.60;;;9.48;;
46491;SDS011;32206;51.446;6.792;2023-05-07T03:34:33;11.23;;;9.77;;
46491;SDS011;32206;51.446;6.792;2023-05-07T03:37:00;11.38;;;9.57;;
46491;SDS011;32206;51.446;6.792;2023-05-07T03:39:25;10.98;;;9.77;;
46491;SDS011;32206;51.446;6.792;2023-05-07T03:41:51;13.05;;;9.48;;
46491;SDS011;32206;51.446;6.792;2023-05-07T03:44:16;11.73;;;10.43;;
46491;SDS011;32206;51.446;6.792;2023-05-07T03:46:42;10.38;;;9.32;;
46491;SDS011;32206;51.446;6.792;2023-05-07T03:49:08;10.20;;;8.95;;
46491;SDS011;32206;51.446;6.792;2023-05-07T03:51:33;11.73;;;10.48;;
46491;SDS011;32206;51.446;6.792;2023-05-07T03:54:01;10.52;;;9.45;;
46491;SDS011;32206;51.446;6.792;2023-05-07T03:56:26;13.95;;;11.45;;
46491;SDS011;32206;51.446;6.792;2023-05-07T03:58:53;13.15;;;10.70;;
46491;SDS011;32206;51.446;6.792;2023-05-07T04:01:19;11.55;;;10.40;;
46491;SDS011;32206;51.446;6.792;2023-05-07T04:03:44;15.35;;;10.93;;
46491;SDS011;32206;51.446;6.792;2023-05-07T04:06:10;16.95;;;11.52;;
46491;SDS011;32206;51.446;6.792;2023-05-07T04:08:37;14.05;;;11.73;;
46491;SDS011;32206;51.446;6.792;2023-05-07T04:11:02;18.05;;;13.27;;
46491;SDS011;32206;51.446;6.792;2023-05-07T04:13:29;13.98;;;12.45;;
46491;SDS011;32206;51.446;6.792;2023-05-07T04:15:55;16.02;;;12.88;;
46491;SDS011;32206;51.446;6.792;2023-05-07T04:18:21;15.88;;;12.23;;
46491;SDS011;32206;51.446;6.792;2023-05-07T04:20:49;16.20;;;11.95;;
46491;SDS011;32206;51.446;6.792;2023-05-07T04:23:15;15.38;;;11.55;;
46491;SDS011;32206;51.446;6.792;2023-05-07T04:25:40;15.52;;;13.27;;
46491;SDS011;32206;51.446;6.792;2023-05-07T04:28:06;14.57;;;13.00;;
46491;SDS011;32206;51.446;6.792;2023-05-07T04:30:32;14.60;;;12.52;;
46491;SDS011;32206;51.446;6.792;2023-05-07T04:32:57;18.25;;;13.55;;
46491;SDS011;32206;51.446;6.792;2023-05-07T04:35:23;20.13;;;14.13;;
46491;SDS011;32206;51.446;6.792;2023-05-07T04:37:49;15.40;;;13.80;;
46491;SDS011;32206;51.446;6.792;2023-05-07T04:40:14;15.77;;;14.10;;
46491;SDS011;32206;51.446;6.792;2023-05-07T04:42:40;17.55;;;14.18;;
46491;SDS011;32206;51.446;6.792;2023-05-07T04:45:06;18.27;;;14.85;;
46491;SDS011;32206;51.446;6.792;2023-05-07T04:47:33;14.82;;;13.25;;
46491;SDS011;32206;51.446;6.792;2023-05-07T04:49:59;15.75;;;13.52;;
46491;SDS011;32206;51.446;6.792;2023-05-07T04:52:25;19.92;;;16.27;;
46491;SDS011;32206;51.446;6.792;2023-05-07T04:54:50;18.52;;;15.13;;
46491;SDS011;32206;51.446;6.792;2023-05-07T04:57:16;23.02;;;17.33;;
46491;SDS011;32206;51.446;6.792;2023-05-07T04:59:42;15.63;;;13.27;;
46491;SDS011;32206;51.446;6.792;2023-05-07T05:02:09;18.10;;;13.95;;
46491;SDS011;32206;51.446;6.792;2023-05-07T05:04:35;16.08;;;14.00;;
46491;SDS011;32206;51.446;6.792;2023-05-07T05:07:01;15.77;;;13.95;;
46491;SDS011;32206;51.446;6.792;2023-05-07T05:09:29;18.98;;;13.93;;
46491;SDS011;32206;51.446;6.792;2023-05-07T05:11:55;15.45;;;13.75;;
46491;SDS011;32206;51.446;6.792;2023-05-07T05:14:20;15.82;;;13.80;;
46491;SDS011;32206;51.446;6.792;2023-05-07T05:16:46;16.92;;;14.07;;
46491;SDS011;32206;51.446;6.792;2023-05-07T05:19:11;15.90;;;13.90;;
46491;SDS011;32206;51.446;6.792;2023-05-07T05:21:37;20.40;;;14.10;;
46491;SDS011;32206;51.446;6.792;2023-05-07T05:24:03;30.17;;;23.05;;
46491;SDS011;32206;51.446;6.792;2023-05-07T05:26:28;31.65;;;23.08;;
46491;SDS011;32206;51.446;6.792;2023-05-07T05:28:54;20.83;;;17.65;;
46491;SDS011;32206;51.446;6.792;2023-05-07T05:31:20;18.15;;;14.32;;
46491;SDS011;32206;51.446;6.792;2023-05-07T05:33:46;19.02;;;14.73;;
46491;SDS011;32206;51.446;6.792;2023-05-07T05:36:11;18.30;;;15.23;;
46491;SDS011;32206;51.446;6.792;2023-05-07T05:38:38;17.65;;;15.20;;
46491;SDS011;32206;51.446;6.792;2023-05-07T05:41:04;16.52;;;14.60;;
46491;SDS011;32206;51.446;6.792;2023-05-07T05:43:30;16.30;;;14.50;;
46491;SDS011;32206;51.446;6.792;2023-05-07T05:45:56;14.40;;;12.93;;
46491;SDS011;32206;51.446;6.792;2023-05-07T05:48:22;15.55;;;13.93;;
46491;SDS011;32206;51.446;6.792;2023-05-07T05:50:48;17.35;;;14.25;;
46491;SDS011;32206;51.446;6.792;2023-05-07T05:53:13;16.90;;;13.70;;
46491;SDS011;32206;51.446;6.792;2023-05-07T05:55:39;16.25;;;14.32;;
46491;SDS011;32206;51.446;6.792;2023-05-07T05:58:05;14.85;;;13.35;;
46491;SDS011;32206;51.446;6.792;2023-05-07T06:00:31;13.98;;;12.48;;
46491;SDS011;32206;51.446;6.792;2023-05-07T06:02:57;14.43;;;12.90;;
46491;SDS011;32206;51.446;6.792;2023-05-07T06:05:22;13.98;;;12.32;;
46491;SDS011;32206;51.446;6.792;2023-05-07T06:07:48;12.82;;;10.80;;
46491;SDS011;32206;51.446;6.792;2023-05-07T06:10:13;13.70;;;12.05;;
46491;SDS011;32206;51.446;6.792;2023-05-07T06:12:39;14.45;;;12.00;;
46491;SDS011;32206;51.446;6.792;2023-05-07T06:15:05;36.33;;;25.52;;
46491;SDS011;32206;51.446;6.792;2023-05-07T06:17:31;43.72;;;31.58;;
46491;SDS011;32206;51.446;6.792;2023-05-07T06:19:57;26.77;;;19.00;;
46491;SDS011;32206;51.446;6.792;2023-05-07T06:22:22;12.18;;;10.98;;
46491;SDS011;32206;51.446;6.792;2023-05-07T06:24:48;13.00;;;9.65;;
46491;SDS011;32206;51.446;6.792;2023-05-07T06:27:13;11.68;;;8.52;;
46491;SDS011;32206;51.446;6.792;2023-05-07T06:29:39;9.98;;;8.98;;
46491;SDS011;32206;51.446;6.792;2023-05-07T06:32:08;8.68;;;7.97;;
46491;SDS011;32206;51.446;6.792;2023-05-07T06:34:35;8.82;;;7.93;;
46491;SDS011;32206;51.446;6.792;2023-05-07T06:37:01;9.40;;;7.53;;
46491;SDS011;32206;51.446;6.792;2023-05-07T06:39:27;8.48;;;7.07;;
46491;SDS011;32206;51.446;6.792;2023-05-07T06:41:53;8.02;;;7.22;;
46491;SDS011;32206;51.446;6.792;2023-05-07T06:44:19;10.43;;;7.80;;
46491;SDS011;32206;51.446;6.792;2023-05-07T06:46:44;19.98;;;14.18;;
46491;SDS011;32206;51.446;6.792;2023-05-07T06:49:11;20.63;;;13.65;;
46491;SDS011;32206;51.446;6.792;2023-05-07T06:51:38;14.27;;;8.00;;
46491;SDS011;32206;51.446;6.792;2023-05-07T06:54:04;10.43;;;5.50;;
46491;SDS011;32206;51.446;6.792;2023-05-07T06:56:33;7.20;;;5.30;;
46491;SDS011;32206;51.446;6.792;2023-05-07T06:58:59;5.95;;;4.32;;
46491;SDS011;32206;51.446;6.792;2023-05-07T07:01:25;7.45;;;4.97;;
46491;SDS011;32206;51.446;6.792;2023-05-07T07:03:51;6.95;;;4.80;;
46491;SDS011;32206;51.446;6.792;2023-05-07T07:06:17;5.30;;;4.30;;
46491;SDS011;32206;51.446;6.792;2023-05-07T07:08:43;5.45;;;4.20;;
46491;SDS011;32206;51.446;6.792;2023-05-07T07:11:09;4.68;;;4.28;;
46491;SDS011;32206;51.446;6.792;2023-05-07T07:13:35;6.05;;;4.97;;
46491;SDS011;32206;51.446;6.792;2023-05-07T07:16:01;5.10;;;3.92;;
46491;SDS011;32206;51.446;6.792;2023-05-07T07:18:27;8.82;;;4.75;;
46491;SDS011;32206;51.446;6.792;2023-05-07T07:20:52;4.70;;;3.97;;
46491;SDS011;32206;51.446;6.792;2023-05-07T07:23:18;3.50;;;3.25;;
46491;SDS011;32206;51.446;6.792;2023-05-07T07:25:44;3.70;;;3.40;;
46491;SDS011;32206;51.446;6.792;2023-05-07T07:28:10;9.00;;;3.67;;
46491;SDS011;32206;51.446;6.792;2023-05-07T07:30:36;3.90;;;3.60;;
46491;SDS011;32206;51.446;6.792;2023-05-07T07:33:02;4.55;;;3.80;;
46491;SDS011;32206;51.446;6.792;2023-05-07T07:35:37;4.47;;;4.00;;
46491;SDS011;32206;51.446;6.792;2023-05-07T07:38:02;4.18;;;3.72;;
46491;SDS011;32206;51.446;6.792;2023-05-07T07:40:28;6.60;;;4.50;;
46491;SDS011;32206;51.446;6.792;2023-05-07T07:42:54;3.90;;;3.55;;
46491;SDS011;32206;51.446;6.792;2023-05-07T07:45:21;6.15;;;4.07;;
46491;SDS011;32206;51.446;6.792;2023-05-07T07:47:47;5.88;;;3.92;;
46491;SDS011;32206;51.446;6.792;2023-05-07T07:50:13;7.47;;;3.97;;
46491;SDS011;32206;51.446;6.792;2023-05-07T07:52:38;3.75;;;3.42;;
46491;SDS011;32206;51.446;6.792;2023-05-07T07:55:04;5.03;;;3.22;;
46491;SDS011;32206;51.446;6.792;2023-05-07T07:57:30;3.40;;;3.20;;
46491;SDS011;32206;51.446;6.792;2023-05-07T07:59:56;3.47;;;2.72;;
46491;SDS011;32206;51.446;6.792;2023-05-07T08:02:22;3.95;;;2.67;;
46491;SDS011;32206;51.446;6.792;2023-05-07T08:04:47;4.32;;;3.10;;
46491;SDS011;32206;51.446;6.792;2023-05-07T08:07:13;3.45;;;2.80;;
46491;SDS011;32206;51.446;6.792;2023-05-07T08:09:39;4.63;;;3.08;;
46491;SDS011;32206;51.446;6.792;2023-05-07T08:12:05;2.80;;;2.60;;
46491;SDS011;32206;51.446;6.792;2023-05-07T08:14:32;3.05;;;2.67;;
46491;SDS011;32206;51.446;6.792;2023-05-07T08:16:58;3.20;;;2.53;;
46491;SDS011;32206;51.446;6.792;2023-05-07T08:19:23;2.95;;;2.65;;
46491;SDS011;32206;51.446;6.792;2023-05-07T08:21:49;4.63;;;2.17;;
46491;SDS011;32206;51.446;6.792;2023-05-07T08:24:15;4.18;;;2.15;;
46491;SDS011;32206;51.446;6.792;2023-05-07T08:26:41;4.90;;;2.53;;
46491;SDS011;32206;51.446;6.792;2023-05-07T08:29:08;6.90;;;3.60;;
46491;SDS011;32206;51.446;6.792;2023-05-07T08:31:33;2.92;;;1.80;;
46491;SDS011;32206;51.446;6.792;2023-05-07T08:33:59;4.22;;;2.45;;
46491;SDS011;32206;51.446;6.792;2023-05-07T08:36:25;3.03;;;1.80;;
46491;SDS011;32206;51.446;6.792;2023-05-07T08:38:51;11.18;;;2.47;;
46491;SDS011;32206;51.446;6.792;2023-05-07T08:41:17;2.65;;;1.90;;
46491;SDS011;32206;51.446;6.792;2023-05-07T08:43:45;2.22;;;1.80;;
46491;SDS011;32206;51.446;6.792;2023-05-07T08:46:19;4.07;;;1.85;;
46491;SDS011;32206;51.446;6.792;2023-05-07T08:48:49;3.92;;;1.88;;
46491;SDS011;32206;51.446;6.792;2023-05-07T08:51:16;3.72;;;1.50;;
46491;SDS011;32206;51.446;6.792;2023-05-07T08:53:44;7.25;;;2.50;;
46491;SDS011;32206;51.446;6.792;2023-05-07T08:59:35;5.88;;;1.70;;
46491;SDS011;32206;51.446;6.792;2023-05-07T09:02:01;4.65;;;1.35;;
46491;SDS011;32206;51.446;6.792;2023-05-07T09:04:27;1.75;;;1.40;;
46491;SDS011;32206;51.446;6.792;2023-05-07T09:06:53;1.55;;;1.45;;
46491;SDS011;32206;51.446;6.792;2023-05-07T09:09:18;1.17;;;1.08;;
46491;SDS011;32206;51.446;6.792;2023-05-07T09:11:46;1.75;;;1.60;;
46491;SDS011;32206;51.446;6.792;2023-05-07T09:14:12;1.20;;;1.10;;
46491;SDS011;32206;51.446;6.792;2023-05-07T09:16:38;1.55;;;1.15;;
46491;SDS011;32206;51.446;6.792;2023-05-07T09:19:03;1.92;;;1.20;;
46491;SDS011;32206;51.446;6.792;2023-05-07T09:21:29;2.35;;;1.25;;
46491;SDS011;32206;51.446;6.792;2023-05-07T09:30:14;1.67;;;1.05;;
46491;SDS011;32206;51.446;6.792;2023-05-07T09:32:39;1.30;;;1.17;;
46491;SDS011;32206;51.446;6.792;2023-05-07T09:41:49;1.75;;;0.90;;
46491;SDS011;32206;51.446;6.792;2023-05-07T09:44:16;1.30;;;1.00;;
46491;SDS011;32206;51.446;6.792;2023-05-07T09:46:43;4.25;;;1.23;;
46491;SDS011;32206;51.446;6.792;2023-05-07T10:03:04;1.10;;;0.93;;
46491;SDS011;32206;51.446;6.792;2023-05-07T10:05:32;1.13;;;0.80;;
46491;SDS011;32206;51.446;6.792;2023-05-07T10:07:59;2.70;;;0.88;;
46491;SDS011;32206;51.446;6.792;2023-05-07T10:10:26;1.02;;;0.90;;
46491;SDS011;32206;51.446;6.792;2023-05-07T10:12:54;1.85;;;0.70;;
46491;SDS011;32206;51.446;6.792;2023-05-07T10:15:20;4.32;;;0.90;;
46491;SDS011;32206;51.446;6.792;2023-05-07T10:17:46;1.08;;;0.73;;
46491;SDS011;32206;51.446;6.792;2023-05-07T10:20:13;5.85;;;0.90;;
46491;SDS011;32206;51.446;6.792;2023-05-07T10:22:40;4.50;;;1.08;;
46491;SDS011;32206;51.446;6.792;2023-05-07T10:25:14;0.80;;;0.70;;
46491;SDS011;32206;51.446;6.792;2023-05-07T10:27:46;1.92;;;1.08;;
46491;SDS011;32206;51.446;6.792;2023-05-07T10:32:49;2.77;;;1.20;;
46491;SDS011;32206;51.446;6.792;2023-05-07T10:35:22;1.10;;;0.88;;
46491;SDS011;32206;51.446;6.792;2023-05-07T10:37:51;4.68;;;1.55;;
46491;SDS011;32206;51.446;6.792;2023-05-07T10:40:17;4.53;;;1.33;;
46491;SDS011;32206;51.446;6.792;2023-05-07T10:42:54;5.72;;;1.35;;
46491;SDS011;32206;51.446;6.792;2023-05-07T10:45:25;2.42;;;0.98;;
46491;SDS011;32206;51.446;6.792;2023-05-07T10:48:11;2.80;;;1.10;;
46491;SDS011;32206;51.446;6.792;2023-05-07T10:50:44;1.48;;;1.10;;
46491;SDS011;32206;51.446;6.792;2023-05-07T10:55:43;1.65;;;1.05;;
46491;SDS011;32206;51.446;6.792;2023-05-07T11:00:55;1.30;;;1.20;;
46491;SDS011;32206;51.446;6.792;2023-05-07T11:03:22;2.78;;;1.30;;
46491;SDS011;32206;51.446;6.792;2023-05-07T11:05:47;1.30;;;1.17;;
46491;SDS011;32206;51.446;6.792;2023-05-07T11:08:53;1.50;;;1.30;;
46491;SDS011;32206;51.446;6.792;2023-05-07T11:17:05;2.55;;;0.90;;
46491;SDS011;32206;51.446;6.792;2023-05-07T11:25:04;4.72;;;1.40;;
46491;SDS011;32206;51.446;6.792;2023-05-07T11:27:31;3.95;;;1.30;;
46491;SDS011;32206;51.446;6.792;2023-05-07T11:29:57;1.50;;;1.00;;
46491;SDS011;32206;51.446;6.792;2023-05-07T11:41:37;2.08;;;1.30;;
46491;SDS011;32206;51.446;6.792;2023-05-07T11:44:03;1.27;;;0.80;;
46491;SDS011;32206;51.446;6.792;2023-05-07T11:46:29;3.08;;;1.83;;
46491;SDS011;32206;51.446;6.792;2023-05-07T11:48:55;3.55;;;1.40;;
46491;SDS011;32206;51.446;6.792;2023-05-07T11:51:22;3.10;;;1.30;;
46491;SDS011;32206;51.446;6.792;2023-05-07T11:53:50;4.68;;;1.30;;
46491;SDS011;32206;51.446;6.792;2023-05-07T11:56:17;1.33;;;1.20;;
46491;SDS011;32206;51.446;6.792;2023-05-07T11:58:43;1.65;;;1.35;;
46491;SDS011;32206;51.446;6.792;2023-05-07T12:01:11;1.33;;;1.23;;
46491;SDS011;32206;51.446;6.792;2023-05-07T12:03:39;3.03;;;1.40;;
46491;SDS011;32206;51.446;6.792;2023-05-07T12:06:09;3.53;;;1.55;;
46491;SDS011;32206;51.446;6.792;2023-05-07T12:08:37;1.40;;;1.30;;
46491;SDS011;32206;51.446;6.792;2023-05-07T12:11:06;2.15;;;1.33;;
46491;SDS011;32206;51.446;6.792;2023-05-07T12:13:33;1.45;;;1.17;;
46491;SDS011;32206;51.446;6.792;2023-05-07T12:15:59;1.45;;;1.15;;
46491;SDS011;32206;51.446;6.792;2023-05-07T12:18:28;5.63;;;1.40;;
46491;SDS011;32206;51.446;6.792;2023-05-07T12:20:54;2.28;;;1.67;;
46491;SDS011;32206;51.446;6.792;2023-05-07T12:23:20;1.65;;;1.20;;
46491;SDS011;32206;51.446;6.792;2023-05-07T12:25:47;2.30;;;1.02;;
46491;SDS011;32206;51.446;6.792;2023-05-07T12:28:15;1.95;;;1.40;;
46491;SDS011;32206;51.446;6.792;2023-05-07T12:30:42;1.52;;;1.42;;
46491;SDS011;32206;51.446;6.792;2023-05-07T12:33:09;2.38;;;1.13;;
46491;SDS011;32206;51.446;6.792;2023-05-07T12:35:39;2.20;;;1.20;;
46491;SDS011;32206;51.446;6.792;2023-05-07T12:38:09;1.83;;;1.25;;
46491;SDS011;32206;51.446;6.792;2023-05-07T12:40:39;1.88;;;1.00;;
46491;SDS011;32206;51.446;6.792;2023-05-07T12:43:04;2.08;;;1.10;;
46491;SDS011;32206;51.446;6.792;2023-05-07T12:45:30;2.72;;;1.40;;
46491;SDS011;32206;51.446;6.792;2023-05-07T12:47:56;1.48;;;1.05;;
46491;SDS011;32206;51.446;6.792;2023-05-07T12:50:30;1.95;;;1.48;;
46491;SDS011;32206;51.446;6.792;2023-05-07T12:52:58;3.55;;;1.45;;
46491;SDS011;32206;51.446;6.792;2023-05-07T12:55:24;1.65;;;1.15;;
46491;SDS011;32206;51.446;6.792;2023-05-07T12:57:50;2.08;;;1.30;;
46491;SDS011;32206;51.446;6.792;2023-05-07T13:00:16;6.03;;;0.93;;
46491;SDS011;32206;51.446;6.792;2023-05-07T13:02:42;2.75;;;1.10;;
46491;SDS011;32206;51.446;6.792;2023-05-07T13:05:11;2.20;;;1.52;;
46491;SDS011;32206;51.446;6.792;2023-05-07T13:07:37;3.28;;;1.50;;
46491;SDS011;32206;51.446;6.792;2023-05-07T13:10:04;2.83;;;1.35;;
46491;SDS011;32206;51.446;6.792;2023-05-07T13:12:30;2.85;;;1.42;;
46491;SDS011;32206;51.446;6.792;2023-05-07T13:14:56;2.17;;;1.50;;
46491;SDS011;32206;51.446;6.792;2023-05-07T13:17:21;4.43;;;1.30;;
46491;SDS011;32206;51.446;6.792;2023-05-07T13:19:47;1.73;;;1.20;;
46491;SDS011;32206;51.446;6.792;2023-05-07T13:22:12;1.15;;;1.08;;
46491;SDS011;32206;51.446;6.792;2023-05-07T13:24:38;1.35;;;1.25;;
46491;SDS011;32206;51.446;6.792;2023-05-07T13:27:06;4.57;;;1.75;;
46491;SDS011;32206;51.446;6.792;2023-05-07T13:29:32;2.10;;;1.30;;
46491;SDS011;32206;51.446;6.792;2023-05-07T13:31:57;2.78;;;2.50;;
46491;SDS011;32206;51.446;6.792;2023-05-07T13:34:23;2.33;;;1.80;;
46491;SDS011;32206;51.446;6.792;2023-05-07T13:36:49;5.43;;;2.70;;
46491;SDS011;32206;51.446;6.792;2023-05-07T13:39:15;1.95;;;1.80;;
46491;SDS011;32206;51.446;6.792;2023-05-07T13:41:41;2.55;;;2.00;;
46491;SDS011;32206;51.446;6.792;2023-05-07T13:44:07;2.10;;;1.90;;
46491;SDS011;32206;51.446;6.792;2023-05-07T13:46:32;3.63;;;2.20;;
46491;SDS011;32206;51.446;6.792;2023-05-07T13:48:58;4.18;;;2.47;;
46491;SDS011;32206;51.446;6.792;2023-05-07T13:51:24;3.25;;;2.40;;
46491;SDS011;32206;51.446;6.792;2023-05-07T13:53:50;4.85;;;3.10;;
46491;SDS011;32206;51.446;6.792;2023-05-07T13:59:39;2.92;;;2.63;;
46491;SDS011;32206;51.446;6.792;2023-05-07T14:02:05;5.63;;;2.72;;
46491;SDS011;32206;51.446;6.792;2023-05-07T14:04:31;4.15;;;2.50;;
46491;SDS011;32206;51.446;6.792;2023-05-07T14:06:57;5.68;;;2.83;;
46491;SDS011;32206;51.446;6.792;2023-05-07T14:09:22;4.53;;;2.70;;
46491;SDS011;32206;51.446;6.792;2023-05-07T14:11:49;5.88;;;2.90;;
46491;SDS011;32206;51.446;6.792;2023-05-07T14:14:16;5.45;;;3.20;;
46491;SDS011;32206;51.446;6.792;2023-05-07T14:16:43;6.38;;;4.18;;
46491;SDS011;32206;51.446;6.792;2023-05-07T14:19:09;7.03;;;3.60;;
46491;SDS011;32206;51.446;6.792;2023-05-07T14:21:35;3.22;;;2.92;;
46491;SDS011;32206;51.446;6.792;2023-05-07T14:24:01;7.18;;;3.50;;
46491;SDS011;32206;51.446;6.792;2023-05-07T14:26:27;9.93;;;2.97;;
46491;SDS011;32206;51.446;6.792;2023-05-07T14:28:52;7.40;;;3.88;;
46491;SDS011;32206;51.446;6.792;2023-05-07T14:31:20;3.63;;;2.72;;
46491;SDS011;32206;51.446;6.792;2023-05-07T14:33:46;6.80;;;2.97;;
46491;SDS011;32206;51.446;6.792;2023-05-07T14:36:11;6.55;;;3.25;;
46491;SDS011;32206;51.446;6.792;2023-05-07T14:38:37;5.60;;;3.05;;
46491;SDS011;32206;51.446;6.792;2023-05-07T14:41:03;6.30;;;2.92;;
46491;SDS011;32206;51.446;6.792;2023-05-07T14:43:29;3.40;;;3.10;;
46491;SDS011;32206;51.446;6.792;2023-05-07T14:45:54;3.30;;;2.60;;
46491;SDS011;32206;51.446;6.792;2023-05-07T14:48:20;6.03;;;3.70;;
46491;SDS011;32206;51.446;6.792;2023-05-07T14:50:48;5.00;;;2.65;;
46491;SDS011;32206;51.446;6.792;2023-05-07T14:53:15;5.20;;;3.20;;
46491;SDS011;32206;51.446;6.792;2023-05-07T14:55:40;5.07;;;3.80;;
46491;SDS011;32206;51.446;6.792;2023-05-07T14:58:06;3.88;;;2.88;;
46491;SDS011;32206;51.446;6.792;2023-05-07T15:00:32;6.70;;;3.55;;
46491;SDS011;32206;51.446;6.792;2023-05-07T15:03:04;7.00;;;3.90;;
46491;SDS011;32206;51.446;6.792;2023-05-07T15:05:32;5.15;;;4.25;;
46491;SDS011;32206;51.446;6.792;2023-05-07T15:07:58;6.65;;;4.57;;
46491;SDS011;32206;51.446;6.792;2023-05-07T15:10:23;13.93;;;6.55;;
46491;SDS011;32206;51.446;6.792;2023-05-07T15:12:49;15.02;;;6.30;;
46491;SDS011;32206;51.446;6.792;2023-05-07T15:15:15;7.00;;;4.68;;
46491;SDS011;32206;51.446;6.792;2023-05-07T15:17:40;8.93;;;5.03;;
46491;SDS011;32206;51.446;6.792;2023-05-07T15:20:06;7.10;;;5.22;;
46491;SDS011;32206;51.446;6.792;2023-05-07T15:22:33;6.43;;;4.95;;
46491;SDS011;32206;51.446;6.792;2023-05-07T15:24:58;9.45;;;5.38;;
46491;SDS011;32206;51.446;6.792;2023-05-07T15:27:24;12.10;;;5.68;;
46491;SDS011;32206;51.446;6.792;2023-05-07T15:29:51;11.88;;;5.10;;
46491;SDS011;32206;51.446;6.792;2023-05-07T15:32:17;8.45;;;5.57;;
46491;SDS011;32206;51.446;6.792;2023-05-07T15:34:42;8.18;;;5.95;;
46491;SDS011;32206;51.446;6.792;2023-05-07T15:37:08;8.15;;;5.05;;
46491;SDS011;32206;51.446;6.792;2023-05-07T15:39:33;7.80;;;5.70;;
46491;SDS011;32206;51.446;6.792;2023-05-07T15:41:59;7.47;;;5.68;;
46491;SDS011;32206;51.446;6.792;2023-05-07T15:44:26;6.90;;;5.60;;
46491;SDS011;32206;51.446;6.792;2023-05-07T15:46:53;11.07;;;6.75;;
46491;SDS011;32206;51.446;6.792;2023-05-07T15:49:19;11.52;;;5.97;;
46491;SDS011;32206;51.446;6.792;2023-05-07T15:51:44;9.73;;;6.00;;